• Join FlightAware (Why Join?)
  • Login
  • US Flag 
08:01AM EDT


 

Airport Tracker/Info


-or-


 

Live Flight TrackerFlight Track Log ✈ LXJ342 ✈ 22-Aug-2013 ✈ KTLH - KLGA

Flight Track Log - Related Links

Times and Time Zones

All times are in EDT time to prevent confusion due to time zone crossing. See the LXJ342 flight status page for this flight to view local times or setup timezone preferences in your user account.

Time Position Orientation Groundspeed Altitude Reporting Facility
EDT Latitude Longitude Course Direction KTS MPH feet Rate Location/Type
12:49PM 30.4733 -84.5219 51° Northeast 260 299 6,800  Level Jacksonville Center
12:50PM 30.5014 -84.6067 291° West 270 311 9,700 2,700 Climbing Jacksonville Center
12:51PM 30.5378 -84.6967 295° West 292 336 12,200 2,700 Climbing Jacksonville Center
12:52PM 30.5761 -84.7867 296° West 305 351 15,200 2,700 Climbing Jacksonville Center
12:53PM 30.6100 -84.8814 293° West 310 357 17,700 2,220 Climbing Jacksonville Center
12:54PM 30.7921 -83.6986 51° Northeast  Level FlightAware Approximate
12:54PM 30.6608 -84.9767 302° West 327 376 19,700  Level Jacksonville Center
12:55PM 30.8655 -83.5925 51° Northeast  Level FlightAware Approximate
12:55PM 30.7456 -85.0219 335° Northwest 317 365 21,400  Level Jacksonville Center
12:56PM 30.8139 -84.9342 48° Northeast 253 291 22,900 1,560 Climbing Jacksonville Center
12:57PM 30.8658 -84.8069 65° Northeast 308 354 24,600 1,500 Climbing Jacksonville Center
12:58PM 30.9136 -84.6869 65° Northeast 357 411 26,000 1,440 Climbing Jacksonville Center
12:59PM 30.9633 -84.5667 64° Northeast 385 443 27,500 1,500 Climbing Jacksonville Center
01:00PM 31.0128 -84.4439 65° Northeast 404 465 29,000 1,380 Climbing Jacksonville Center
01:01PM 31.0625 -84.3186 65° Northeast 414 476 30,300 1,140 Climbing Jacksonville Center
01:02PM 31.1117 -84.1931 65° Northeast 424 488 31,300 960 Climbing Jacksonville Center
01:03PM 31.1653 -84.0628 64° Northeast 424 488 32,300 840 Climbing Jacksonville Center
01:04PM 31.2164 -83.9322 65° Northeast 430 495 33,000 660 Climbing Jacksonville Center
01:05PM 31.2425 -83.7917 78° East 435 501 33,700 480 Climbing Jacksonville Center
01:06PM 31.2539 -83.6386 85° East 448 516 34,000 120 Climbing Jacksonville Center
01:07PM 31.2694 -83.4833 83° East 468 539 34,000 300 Level Jacksonville Center
01:08PM 31.2931 -83.3253 80° East 483 556 34,700 840 Climbing Jacksonville Center
01:09PM 31.3581 -83.1894 61° Northeast 476 548 35,700 900 Climbing Jacksonville Center
01:10PM 31.4272 -83.0581 58° Northeast 464 534 36,600 900 Climbing Jacksonville Center
01:11PM 31.4922 -82.9317 59° Northeast 464 534 37,600 960 Climbing Jacksonville Center
01:12PM 31.5569 -82.8025 60° Northeast 459 528 38,600 660 Climbing Jacksonville Center
01:13PM 31.6214 -82.6778 59° Northeast 454 522 39,000 180 Climbing Jacksonville Center
01:14PM 31.6881 -82.5483 59° Northeast 449 517 39,000  Level Jacksonville Center
01:15PM 31.7503 -82.4161 61° Northeast 449 517 39,000  Level Jacksonville Center
01:16PM 31.8186 -82.2861 58° Northeast 453 521 39,000  Level Jacksonville Center
01:17PM 31.8867 -82.1464 60° Northeast 473 544 39,000  Level Jacksonville Center
01:18PM 31.9486 -82.0258 59° Northeast 490 564 39,000  Level Jacksonville Center
01:19PM 32.0519 -81.8975 46° Northeast 490 564 39,000  Level Jacksonville Center
01:20PM 32.1533 -81.7956 40° Northeast 479 551 39,000  Level Jacksonville Center
01:21PM 32.2467 -81.7036 40° Northeast 479 551 39,000  Level Jacksonville Center
01:22PM 32.3583 -81.5942 40° Northeast 479 551 39,000  Level Jacksonville Center
01:23PM 32.4511 -81.4992 41° Northeast 474 545 39,000  Level Jacksonville Center
01:24PM 32.5625 -81.3864 40° Northeast 474 545 39,000  Level Jacksonville Center
01:25PM 32.6636 -81.2886 39° Northeast 474 545 39,000  Level Jacksonville Center
01:26PM 32.7625 -81.1831 42° Northeast 474 545 39,000  Level Jacksonville Center
01:27PM 32.8633 -81.0822 40° Northeast 474 545 39,000  Level Jacksonville Center
01:28PM 32.9642 -80.9764 41° Northeast 479 551 39,000  Level Jacksonville Center
01:29PM 33.0647 -80.8750 40° Northeast 479 551 39,000  Level Jacksonville Center
01:30PM 33.1653 -80.7708 41° Northeast 479 551 39,000  Level Jacksonville Center
01:31PM 33.2681 -80.6692 40° Northeast 479 551 39,000  Level Jacksonville Center
01:32PM 33.3683 -80.5647 41° Northeast 479 551 39,000  Level Jacksonville Center
01:33PM 33.4622 -80.4553 44° Northeast 479 551 39,000  Level Jacksonville Center
01:34PM 33.5242 -80.3139 62° Northeast 474 545 39,000  Level Jacksonville Center
01:35PM 33.5736 -80.1803 66° East 474 545 39,000  Level Jacksonville Center
01:36PM 33.6267 -80.0292 67° East 474 545 39,000  Level Jacksonville Center
01:37PM 33.6775 -79.8828 67° East 479 551 39,000  Level Jacksonville Center
01:38PM 33.7533 -79.7478 56° Northeast 479 551 39,000  Level Jacksonville Center
01:39PM 33.8553 -79.6467 39° Northeast 468 539 39,000  Level Jacksonville Center
01:40PM 33.9633 -79.5550 35° Northeast 462 532 39,000  Level Jacksonville Center
01:41PM 34.0694 -79.4631 36° Northeast 467 537 39,000  Level Jacksonville Center
01:44PM 34.3186 -79.2378 37° Northeast 487 560 39,000  Level Washington Center
01:45PM 34.4239 -79.1419 37° Northeast 482 555 39,000  Level Washington Center
01:46PM 34.5286 -79.0481 36° Northeast 477 549 39,000  Level Washington Center
01:47PM 34.6358 -78.9517 36° Northeast 472 543 39,000  Level Washington Center
01:48PM 34.7428 -78.8575 36° Northeast 472 543 39,000  Level Washington Center
01:49PM 34.8572 -78.7861 27° Northeast 467 537 39,000  Level Washington Center
01:50PM 34.9758 -78.7200 25° Northeast 457 526 39,000  Level Washington Center
01:51PM 35.0883 -78.6456 28° Northeast 457 526 39,000  Level Washington Center
01:52PM 35.2053 -78.5686 28° Northeast 457 526 39,000  Level Washington Center
01:53PM 35.3156 -78.4914 30° Northeast 462 532 39,000  Level Washington Center
01:54PM 35.4344 -78.4089 29° Northeast 475 547 39,000  Level Washington Center
01:55PM 35.5531 -78.3314 28° Northeast 481 554 39,000  Level Washington Center
01:56PM 35.6694 -78.2561 28° Northeast 476 548 39,000  Level Washington Center
01:57PM 35.7839 -78.1806 28° Northeast 471 542 39,000  Level Washington Center
01:58PM 35.8981 -78.1047 28° Northeast 465 535 39,000  Level Washington Center
01:59PM 36.0144 -78.0264 29° Northeast 465 535 39,000  Level Washington Center
02:00PM 36.1308 -77.9503 28° Northeast 465 535 39,000  Level Washington Center
02:01PM 36.2450 -77.8714 29° Northeast 465 535 39,000  Level Washington Center
02:02PM 36.3569 -77.7944 29° Northeast 471 542 39,000  Level Washington Center
02:03PM 36.4564 -77.7275 28° Northeast 450 518 39,000  Level Washington Center
02:04PM 36.5725 -77.6456 30° Northeast 450 518 39,000  Level Washington Center
02:05PM 36.6844 -77.5681 29° Northeast 455 524 39,000  Level Washington Center
02:06PM 36.7961 -77.4906 29° Northeast 455 524 39,000  Level Washington Center
02:07PM 36.9081 -77.4103 30° Northeast 462 532 39,000  Level Washington Center
02:08PM 37.0197 -77.3347 28° Northeast 457 526 39,000  Level Washington Center
02:09PM 37.1250 -77.2617 29° Northeast 446 513 39,000  Level Washington Center
02:10PM 37.2325 -77.1856 29° Northeast 441 507 39,000  Level Washington Center
02:11PM 37.3544 -77.0967 30° Northeast 453 521 39,000  Level Washington Center
02:12PM 37.4800 -77.0756 North 446 513 39,000  Level Washington Center
02:13PM 37.5878 -77.1250 340° North 429 494 39,000  Level Washington Center
02:14PM 37.6508 -77.2442 304° West 398 458 39,000  Level Washington Center
02:15PM 37.5847 -77.3581 234° Southwest 292 336 39,000  Level Washington Center
02:16PM 37.4617 -77.3578 180° South 276 318 39,000  Level Washington Center
02:17PM 37.3297 -77.3836 189° South 369 425 39,000  Level Washington Center
02:18PM 37.2125 -77.4122 191° South 410 472 39,000  Level Washington Center
02:19PM 37.0956 -77.4172 182° South 424 488 39,000  Level Washington Center
02:20PM 37.0369 -77.2936 121° Southeast 346 398 39,000  Level Washington Center
02:21PM 37.1075 -77.1753 53° Northeast 261 300 39,000  Level Washington Center
02:22PM 37.2331 -77.1439 11° North 302 348 39,000  Level Washington Center
02:23PM 37.3606 -77.1100 12° North 398 458 39,000  Level Washington Center
02:24PM 37.4744 -77.1856 332° Northwest 470 541 39,000  Level Washington Center
02:25PM 37.4725 -77.3242 269° West 350 403 39,000  Level Washington Center
02:26PM 37.3714 -77.3925 208° Southwest 283 326 39,000  Level Washington Center
02:27PM 37.2542 -77.4208 191° South 329 379 39,000  Level Washington Center
02:28PM 37.1369 -77.4494 191° South 388 447 39,000  Level Washington Center
02:29PM 37.0400 -77.3742 148° Southeast 370 426 39,000  Level Washington Center
02:30PM 37.0503 -77.2339 85° East 329 379 39,000  Level Washington Center
02:31PM 37.1533 -77.1658 28° Northeast 272 313 39,000  Level Washington Center
02:32PM 37.2592 -77.2175 339° North 292 336 39,000  Level Washington Center
02:33PM 37.3092 -77.3569 294° West 310 357 39,000  Level Washington Center
02:34PM 37.3614 -77.5044 294° West 366 421 39,000  Level Washington Center
02:35PM 37.4578 -77.5906 325° Northwest 427 491 39,000  Level Washington Center
02:36PM 37.5550 -77.6533 333° Northwest 427 491 39,000  Level Washington Center
02:37PM 37.6775 -77.6778 351° North 405 466 39,000  Level Washington Center
02:38PM 37.7789 -77.6097 28° Northeast 395 455 39,000  Level Washington Center
02:39PM 37.8517 -77.4853 53° Northeast 389 448 39,000  Level Washington Center
02:40PM 37.9164 -77.3475 59° Northeast 414 476 39,000  Level Washington Center
02:41PM 37.9747 -77.2067 62° Northeast 427 491 39,000  Level Washington Center
02:42PM 38.0328 -77.0653 62° Northeast 441 507 39,000  Level Washington Center
02:43PM 38.0928 -76.9319 60° Northeast 441 507 39,000  Level Washington Center
02:44PM 38.1733 -76.8094 50° Northeast 436 502 39,000  Level Washington Center
02:45PM 38.2558 -76.6864 49° Northeast 442 509 39,000 -360 Level Washington Center
02:46PM 38.3275 -76.5789 50° Northeast 448 516 38,400 -1,380 Descending Washington Center
02:47PM 38.4119 -76.4503 50° Northeast 460 529 36,400 -1,800 Descending Washington Center
02:48PM 38.5047 -76.3133 49° Northeast 460 529 34,800 -1,920 Descending Washington Center
02:49PM 38.5844 -76.1919 50° Northeast 471 542 32,500 -2,160 Descending Washington Center
02:50PM 38.6956 -76.0917 35° Northeast 476 548 30,500 -2,040 Descending Washington Center
02:51PM 38.8042 -76.0019 33° Northeast 468 539 28,500 -1,800 Descending Washington Center
02:52PM 38.9128 -75.9278 28° Northeast 452 520 27,000 -780 Descending Washington Center
02:53PM 39.0111 -75.8533 30° Northeast 436 502 27,000 -540 Level Washington Center
02:54PM 39.1111 -75.7789 30° Northeast 415 478 26,000 -1,200 Descending Washington Center
02:55PM 39.2050 -75.7094 30° Northeast 404 465 24,700 -1,080 Descending Washington Center
02:56PM 39.2967 -75.6344 32° Northeast 393 452 23,900 -900 Descending Washington Center
02:57PM 39.3719 -75.5433 43° Northeast 381 438 22,900 -1,020 Descending Washington Center
02:58PM 39.4489 -75.4572 41° Northeast 369 425 21,900 -1,020 Descending Washington Center
02:59PM 39.5300 -75.3736 38° Northeast 362 417 20,900 -1,020 Descending Washington Center
03:00PM 39.6194 -75.3194 25° Northeast 355 409 19,900 -1,020 Descending Washington Center
03:01PM 39.7111 -75.2597 27° Northeast 355 409 18,900 -1,080 Descending Washington Center
03:02PM 39.7983 -75.2053 26° Northeast 355 409 17,800 -1,080 Descending Washington Center
03:03PM 39.8897 -75.1533 24° Northeast 355 409 16,800 -1,140 Descending Washington Center
03:04PM 39.9750 -75.0989 26° Northeast 355 409 15,600 -1,680 Descending Washington Center
03:05PM 40.0453 -75.0033 46° Northeast 326 375 13,600 -2,040 Descending Washington Center
03:06PM 40.0781 -74.8947 68° East 318 366 11,600 -1,380 Descending Washington Center
03:07PM 40.1108 -74.7886 68° East 312 359 10,800 -900 Descending Washington Center
03:08PM 40.1414 -74.6850 69° East 306 352 9,900 -480 Descending Washington Center
03:09PM 40.1739 -74.5842 67° East 306 352 9,900  Level Washington Center
03:10PM 40.2083 -74.4806 66° East 306 352 10,000  Climbing Washington Center
03:11PM 40.2511 -74.3900 58° Northeast 300 345 9,900 -120 Descending Washington Center
03:13PM 40.4157 -74.2098 49° Northeast  Level FlightAware Approximate
03:20PM 40.7667 -73.8667 30° Northeast  Level FlightAware Approximate
03:21PM 40.7772 -73.8726 30° Northeast  Level Estimated
03:22PM 40.7772 -73.8726 30° Northeast  Level Estimated
03:23PM 40.7772 -73.8726 30° Northeast  Level Estimated
03:24PM 40.7772 -73.8726 30° Northeast  Level Estimated
03:25PM 40.7772 -73.8726 30° Northeast  Level Estimated